createdAt,value
2018-05-18T00:01:55.611Z,5.90
2018-05-18T00:04:22.509Z,6.50
2018-05-18T00:06:48.985Z,6.00
2018-05-18T00:09:16.364Z,6.07
2018-05-18T00:11:42.819Z,5.95
2018-05-18T00:14:09.709Z,6.68
2018-05-18T00:16:37.216Z,6.43
2018-05-18T00:19:03.874Z,7.00
2018-05-18T00:21:30.367Z,6.60
2018-05-18T00:23:56.903Z,7.20
2018-05-18T00:26:23.419Z,6.00
2018-05-18T00:28:50.285Z,6.50
2018-05-18T00:31:16.792Z,6.30
2018-05-18T00:33:43.232Z,6.00
2018-05-18T00:38:59.445Z,7.28
2018-05-18T00:41:26.367Z,7.55
2018-05-18T00:43:52.801Z,6.78
2018-05-18T00:46:19.304Z,7.62
2018-05-18T00:48:45.914Z,6.30
2018-05-18T00:51:12.369Z,6.50
2018-05-18T00:53:39.243Z,7.37
2018-05-18T00:56:06.076Z,6.87
2018-05-18T00:58:32.536Z,6.93
2018-05-18T01:01:00.039Z,6.30
2018-05-18T01:03:26.482Z,5.95
2018-05-18T01:05:53.527Z,6.55
2018-05-18T01:08:21.075Z,6.43
2018-05-18T01:10:47.523Z,5.55
2018-05-18T01:13:14.763Z,6.03
2018-05-18T01:15:41.200Z,6.05
2018-05-18T01:18:07.731Z,5.20
2018-05-18T01:20:34.524Z,5.53
2018-05-18T01:23:02.945Z,5.10
2018-05-18T01:25:29.453Z,5.87
2018-05-18T01:27:55.905Z,5.40
2018-05-18T01:30:22.475Z,5.85
2018-05-18T01:32:48.920Z,4.97
2018-05-18T01:35:15.357Z,5.25
2018-05-18T01:37:41.831Z,5.75
2018-05-18T01:40:08.308Z,4.93
2018-05-18T01:42:34.743Z,5.50
2018-05-18T01:45:01.949Z,5.60
2018-05-18T01:47:28.828Z,4.80
2018-05-18T01:49:55.496Z,4.87
2018-05-18T01:52:21.993Z,5.30
2018-05-18T01:54:48.491Z,4.68
2018-05-18T01:57:15.297Z,5.90
2018-05-18T01:59:41.743Z,4.65
2018-05-18T02:02:08.230Z,5.93
2018-05-18T02:04:34.670Z,5.15
2018-05-18T02:07:02.666Z,5.47
2018-05-18T02:09:29.284Z,5.20
2018-05-18T02:11:55.825Z,5.03
2018-05-18T02:14:22.326Z,5.60
2018-05-18T02:16:48.769Z,5.80
2018-05-18T02:19:15.206Z,5.97
2018-05-18T02:21:41.644Z,5.75
2018-05-18T02:24:08.083Z,5.93
2018-05-18T02:26:34.566Z,5.35
2018-05-18T02:29:01.200Z,5.70
2018-05-18T02:31:27.651Z,6.07
2018-05-18T02:33:54.921Z,5.80
2018-05-18T02:36:22.027Z,6.57
2018-05-18T02:38:48.631Z,5.37
2018-05-18T02:41:15.722Z,5.03
2018-05-18T02:43:42.568Z,4.55
2018-05-18T02:46:09.442Z,4.70
2018-05-18T02:48:36.612Z,4.93
2018-05-18T02:51:03.737Z,4.95
2018-05-18T02:53:30.547Z,5.60
2018-05-18T02:55:57.431Z,5.15
2018-05-18T02:58:23.891Z,5.47
2018-05-18T03:00:50.381Z,5.20
2018-05-18T03:03:17.326Z,5.25
2018-05-18T03:05:44.142Z,4.45
2018-05-18T03:08:10.690Z,5.70
2018-05-18T03:10:37.111Z,5.20
2018-05-18T03:13:04.685Z,5.62
2018-05-18T03:15:31.190Z,5.72
2018-05-18T03:17:59.148Z,5.12
2018-05-18T03:20:25.582Z,5.40
2018-05-18T03:22:52.389Z,5.60
2018-05-18T03:25:19.202Z,4.80
2018-05-18T03:27:46.015Z,4.82
2018-05-18T03:30:12.636Z,5.45
2018-05-18T03:32:39.454Z,4.87
2018-05-18T03:35:05.990Z,5.55
2018-05-18T03:37:32.571Z,5.15
2018-05-18T03:39:59.103Z,6.35
2018-05-18T03:42:25.963Z,7.22
2018-05-18T03:44:53.406Z,8.30
2018-05-18T03:47:19.915Z,6.75
2018-05-18T03:49:46.356Z,6.57
2018-05-18T03:52:12.863Z,7.53
2018-05-18T03:54:40.983Z,8.57
2018-05-18T03:57:07.587Z,8.55
2018-05-18T03:59:35.015Z,7.75
2018-05-18T04:02:13.635Z,8.35
2018-05-18T04:04:56.079Z,7.43
2018-05-18T04:07:36.079Z,7.60
2018-05-18T04:10:02.726Z,8.50
2018-05-18T04:12:29.593Z,8.35
2018-05-18T04:14:56.641Z,7.22
2018-05-18T04:17:25.406Z,7.65
2018-05-18T04:19:52.590Z,6.65
2018-05-18T04:22:19.863Z,6.87
2018-05-18T04:24:46.389Z,7.30
2018-05-18T04:27:12.835Z,7.18
2018-05-18T04:29:39.274Z,6.85
2018-05-18T04:32:05.815Z,7.75
2018-05-18T04:34:33.154Z,6.87
2018-05-18T04:37:00.014Z,6.32
2018-05-18T04:39:26.535Z,6.62
2018-05-18T04:41:53.136Z,6.30
